Parcialmente nublado
Parcialmente nublado
Parcialmente nublado
Parcialmente nublado
Mayormente nublado
Mayormente nublado
Mayormente nublado
(°C)
17°
17°
17°
17°
16°
16°
16°
16°
16°
16°
16°
16°
15°
15°
(°C)
15°
15°
15°
15°
15°
15°
14°
ONO
NO
NO
ONO
ONO
ONO
NO
(km/h)
10-16
8-14
8-13
7-13
7-12
7-12
6-12
(mm)
0
0
0
0
0
0
0
(%)
0
0
0
0
0
0
0

Elevación del sol

/ -0.7°
sun-icon
UV 7
06:07
19:26
Luna llena (174°)
19:30
05:53

METAR a San Diego (KSAN)

Hora Condiciones Temperatura/
Punto de condensación
Viento Visibilidad Tiempo Nubes Presión Cambiar Bruto
MVFR 16.1°C / 11.1°C 320º 7kt >10km - Broken Clouds 2500ft 1016 - KSAN 240151Z 32007KT 10SM BKN025 16/11 A3002 RMK AO2 SLP166 T01610111 $
MVFR 17.2°C / 11.1°C 290º 10kt >10km - Few Clouds 2000ft
Broken Clouds 2700ft
1016 - KSAN 240051Z 29010KT 10SM FEW020 BKN027 17/11 A3003 RMK AO2 SLP169 T01720111 $
MVFR 17.2°C / 11.1°C 290º 10kt Gust 17kt >10km - Few Clouds 2200ft
Broken Clouds 2700ft
1017 - KSAN 232351Z 29010G17KT 10SM FEW022 BKN027 17/11 A3004 RMK AO2 SLP170 T01720111 10189 20172 58006 $
MVFR 18.3°C / 11.7°C 310º 9kt >10km - Few Clouds 2000ft
Broken Clouds 2800ft
1017 - KSAN 232251Z 31009KT 10SM FEW020 BKN028 18/12 A3004 RMK AO2 SLP172 T01830117 $
MVFR 17.8°C / 11.7°C 310º 12kt >10km - Scattered Clouds 2100ft
Broken Clouds 2800ft
1017 - KSAN 232151Z 31012KT 10SM SCT021 BKN028 18/12 A3005 RMK AO2 SLP176 T01780117 $
MVFR 17.8°C / 11.7°C 300º 12kt Gust 18kt >10km - Scattered Clouds 2000ft
Broken Clouds 2700ft
1017 - KSAN 232051Z 30012G18KT 10SM SCT020 BKN027 18/12 A3005 RMK AO2 SLP176 T01780117 51001 $
MVFR 17.8°C / 12.2°C 280º 12kt Gust 19kt >10km - Broken Clouds 2300ft
Broken Clouds 3400ft
1017 - KSAN 231951Z 28012G19KT 10SM BKN023 BKN034 18/12 A3005 RMK AO2 SLP175 T01780122 $
MVFR 17.8°C / 11.7°C 300º 10kt >10km - Broken Clouds 2300ft
Broken Clouds 3400ft
- KSAN 231936Z 30010KT 10SM BKN023 BKN034 18/12 A3005 RMK AO2 T01780117 $
VFR 18.3°C / 11.7°C 250º variable 220º to 280º 8kt >10km - Few Clouds 1900ft
Broken Clouds 3400ft
1017 - KSAN 231851Z 25008KT 220V280 10SM FEW019 BKN034 18/12 A3005 RMK AO2 SLP176 T01830117 $
VFR 17.2°C / 11.7°C 6kt >10km - Few Clouds 1500ft
Broken Clouds 3400ft
1017 - KSAN 231751Z VRB06KT 10SM FEW015 BKN034 17/12 A3005 RMK AO2 SLP175 T01720117 10172 20150 51010 $
MVFR 16.7°C / 11.7°C 190º 7kt >10km - Broken Clouds 3000ft 1017 - KSAN 231651Z 19007KT 10SM BKN030 17/12 A3004 RMK AO2 SLP171 T01670117 $
VFR 16.1°C / 10.6°C 220º 5kt >10km - Overcast 3200ft 1016 - KSAN 231551Z 22005KT 10SM OVC032 16/11 A3003 RMK AO2 SLP169 T01610106 $
MVFR 16.1°C / 10.6°C 200º 4kt >10km - Broken Clouds 3000ft 1016 - KSAN 231451Z 20004KT 10SM BKN030 16/11 A3002 RMK AO2 SLP165 T01610106 53016 $
MVFR 15.6°C / 10.6°C 230º 6kt >10km - Overcast 3000ft - KSAN 231427Z 23006KT 10SM OVC030 16/11 A3001 RMK AO2 T01560106 $
MVFR 15.6°C / 11.1°C 5kt >10km - Broken Clouds 2800ft 1015 - KSAN 231351Z VRB05KT 10SM BKN028 16/11 A3000 RMK AO2 SLP158 T01560111 $
MVFR 15.6°C / 10.6°C 210º 4kt >10km - Overcast 2800ft 1015 - KSAN 231251Z 21004KT 10SM OVC028 16/11 A2998 RMK AO2 SLP152 T01560106 $
MVFR 15.6°C / 10.6°C variable 0kt >10km - Overcast 2600ft 1014 - KSAN 231151Z 00000KT 10SM OVC026 16/11 A2997 RMK AO2 SLP149 T01560106 10156 20144 51001 $
MVFR 15°C / 10.6°C 220º 3kt >10km - Overcast 2700ft 1014 - KSAN 231051Z 22003KT 10SM OVC027 15/11 A2997 RMK AO2 SLP149 T01500106 $
MVFR 15.6°C / 11.1°C 210º 5kt >10km - Overcast 1900ft 1014 - KSAN 230951Z 21005KT 10SM OVC019 16/11 A2997 RMK AO2 SLP149 T01560111 $
MVFR 15°C / 11.1°C 240º 6kt >10km - Overcast 1700ft 1014 - KSAN 230851Z 24006KT 10SM OVC017 15/11 A2997 RMK AO2 SLP148 T01500111 58003 $
MVFR 15°C / 11.1°C 3kt >10km - Broken Clouds 1500ft
Overcast 2100ft
1015 - KSAN 230751Z VRB03KT 10SM BKN015 OVC021 15/11 A2998 RMK AO2 SLP150 T01500111 401720144 $
MVFR 15°C / 11.7°C 230º 3kt >10km - Broken Clouds 1700ft
Overcast 2200ft
- KSAN 230736Z 23003KT 10SM BKN017 OVC022 15/12 A2998 RMK AO2 T01500117 $
MVFR 15°C / 12.2°C 190º 5kt >10km - Broken Clouds 1400ft
Overcast 1900ft
1015 - KSAN 230651Z 19005KT 9SM BKN014 OVC019 15/12 A2998 RMK AO2 SLP151 T01500122 $
MVFR 15°C / 12.2°C 220º 6kt >10km - Overcast 1600ft 1015 - KSAN 230551Z 22006KT 10SM OVC016 15/12 A2998 RMK AO2 SLP151 T01500122 10167 20150 51017 $

MVFR

16.1°C / 11.1°C

[Más]
Viento 320º 7kt
Visibilidad >10km
Tiempo -
Nubes Broken Clouds 2500ft
Presión 1016
Cambiar -
Bruto KSAN 240151Z 32007KT 10SM BKN025 16/11 A3002 RMK AO2 SLP166 T01610111 $

MVFR

17.2°C / 11.1°C

[Más]
Viento 290º 10kt
Visibilidad >10km
Tiempo -
Nubes Few Clouds 2000ft
Broken Clouds 2700ft
Presión 1016
Cambiar -
Bruto KSAN 240051Z 29010KT 10SM FEW020 BKN027 17/11 A3003 RMK AO2 SLP169 T01720111 $

MVFR

17.2°C / 11.1°C

[Más]
Viento 290º 10kt Gust 17kt
Visibilidad >10km
Tiempo -
Nubes Few Clouds 2200ft
Broken Clouds 2700ft
Presión 1017
Cambiar -
Bruto KSAN 232351Z 29010G17KT 10SM FEW022 BKN027 17/11 A3004 RMK AO2 SLP170 T01720111 10189 20172 58006 $

MVFR

18.3°C / 11.7°C

[Más]
Viento 310º 9kt
Visibilidad >10km
Tiempo -
Nubes Few Clouds 2000ft
Broken Clouds 2800ft
Presión 1017
Cambiar -
Bruto KSAN 232251Z 31009KT 10SM FEW020 BKN028 18/12 A3004 RMK AO2 SLP172 T01830117 $

MVFR

17.8°C / 11.7°C

[Más]
Viento 310º 12kt
Visibilidad >10km
Tiempo -
Nubes Scattered Clouds 2100ft
Broken Clouds 2800ft
Presión 1017
Cambiar -
Bruto KSAN 232151Z 31012KT 10SM SCT021 BKN028 18/12 A3005 RMK AO2 SLP176 T01780117 $

MVFR

17.8°C / 11.7°C

[Más]
Viento 300º 12kt Gust 18kt
Visibilidad >10km
Tiempo -
Nubes Scattered Clouds 2000ft
Broken Clouds 2700ft
Presión 1017
Cambiar -
Bruto KSAN 232051Z 30012G18KT 10SM SCT020 BKN027 18/12 A3005 RMK AO2 SLP176 T01780117 51001 $

MVFR

17.8°C / 12.2°C

[Más]
Viento 280º 12kt Gust 19kt
Visibilidad >10km
Tiempo -
Nubes Broken Clouds 2300ft
Broken Clouds 3400ft
Presión 1017
Cambiar -
Bruto KSAN 231951Z 28012G19KT 10SM BKN023 BKN034 18/12 A3005 RMK AO2 SLP175 T01780122 $

MVFR

17.8°C / 11.7°C

[Más]
Viento 300º 10kt
Visibilidad >10km
Tiempo -
Nubes Broken Clouds 2300ft
Broken Clouds 3400ft
Presión
Cambiar -
Bruto KSAN 231936Z 30010KT 10SM BKN023 BKN034 18/12 A3005 RMK AO2 T01780117 $

VFR

18.3°C / 11.7°C

[Más]
Viento 250º variable 220º to 280º 8kt
Visibilidad >10km
Tiempo -
Nubes Few Clouds 1900ft
Broken Clouds 3400ft
Presión 1017
Cambiar -
Bruto KSAN 231851Z 25008KT 220V280 10SM FEW019 BKN034 18/12 A3005 RMK AO2 SLP176 T01830117 $

VFR

17.2°C / 11.7°C

[Más]
Viento 6kt
Visibilidad >10km
Tiempo -
Nubes Few Clouds 1500ft
Broken Clouds 3400ft
Presión 1017
Cambiar -
Bruto KSAN 231751Z VRB06KT 10SM FEW015 BKN034 17/12 A3005 RMK AO2 SLP175 T01720117 10172 20150 51010 $

MVFR

16.7°C / 11.7°C

[Más]
Viento 190º 7kt
Visibilidad >10km
Tiempo -
Nubes Broken Clouds 3000ft
Presión 1017
Cambiar -
Bruto KSAN 231651Z 19007KT 10SM BKN030 17/12 A3004 RMK AO2 SLP171 T01670117 $

VFR

16.1°C / 10.6°C

[Más]
Viento 220º 5kt
Visibilidad >10km
Tiempo -
Nubes Overcast 3200ft
Presión 1016
Cambiar -
Bruto KSAN 231551Z 22005KT 10SM OVC032 16/11 A3003 RMK AO2 SLP169 T01610106 $

MVFR

16.1°C / 10.6°C

[Más]
Viento 200º 4kt
Visibilidad >10km
Tiempo -
Nubes Broken Clouds 3000ft
Presión 1016
Cambiar -
Bruto KSAN 231451Z 20004KT 10SM BKN030 16/11 A3002 RMK AO2 SLP165 T01610106 53016 $

MVFR

15.6°C / 10.6°C

[Más]
Viento 230º 6kt
Visibilidad >10km
Tiempo -
Nubes Overcast 3000ft
Presión
Cambiar -
Bruto KSAN 231427Z 23006KT 10SM OVC030 16/11 A3001 RMK AO2 T01560106 $

MVFR

15.6°C / 11.1°C

[Más]
Viento 5kt
Visibilidad >10km
Tiempo -
Nubes Broken Clouds 2800ft
Presión 1015
Cambiar -
Bruto KSAN 231351Z VRB05KT 10SM BKN028 16/11 A3000 RMK AO2 SLP158 T01560111 $

MVFR

15.6°C / 10.6°C

[Más]
Viento 210º 4kt
Visibilidad >10km
Tiempo -
Nubes Overcast 2800ft
Presión 1015
Cambiar -
Bruto KSAN 231251Z 21004KT 10SM OVC028 16/11 A2998 RMK AO2 SLP152 T01560106 $

MVFR

15.6°C / 10.6°C

[Más]
Viento variable 0kt
Visibilidad >10km
Tiempo -
Nubes Overcast 2600ft
Presión 1014
Cambiar -
Bruto KSAN 231151Z 00000KT 10SM OVC026 16/11 A2997 RMK AO2 SLP149 T01560106 10156 20144 51001 $

MVFR

15°C / 10.6°C

[Más]
Viento 220º 3kt
Visibilidad >10km
Tiempo -
Nubes Overcast 2700ft
Presión 1014
Cambiar -
Bruto KSAN 231051Z 22003KT 10SM OVC027 15/11 A2997 RMK AO2 SLP149 T01500106 $

MVFR

15.6°C / 11.1°C

[Más]
Viento 210º 5kt
Visibilidad >10km
Tiempo -
Nubes Overcast 1900ft
Presión 1014
Cambiar -
Bruto KSAN 230951Z 21005KT 10SM OVC019 16/11 A2997 RMK AO2 SLP149 T01560111 $

MVFR

15°C / 11.1°C

[Más]
Viento 240º 6kt
Visibilidad >10km
Tiempo -
Nubes Overcast 1700ft
Presión 1014
Cambiar -
Bruto KSAN 230851Z 24006KT 10SM OVC017 15/11 A2997 RMK AO2 SLP148 T01500111 58003 $

MVFR

15°C / 11.1°C

[Más]
Viento 3kt
Visibilidad >10km
Tiempo -
Nubes Broken Clouds 1500ft
Overcast 2100ft
Presión 1015
Cambiar -
Bruto KSAN 230751Z VRB03KT 10SM BKN015 OVC021 15/11 A2998 RMK AO2 SLP150 T01500111 401720144 $

MVFR

15°C / 11.7°C

[Más]
Viento 230º 3kt
Visibilidad >10km
Tiempo -
Nubes Broken Clouds 1700ft
Overcast 2200ft
Presión
Cambiar -
Bruto KSAN 230736Z 23003KT 10SM BKN017 OVC022 15/12 A2998 RMK AO2 T01500117 $

MVFR

15°C / 12.2°C

[Más]
Viento 190º 5kt
Visibilidad >10km
Tiempo -
Nubes Broken Clouds 1400ft
Overcast 1900ft
Presión 1015
Cambiar -
Bruto KSAN 230651Z 19005KT 9SM BKN014 OVC019 15/12 A2998 RMK AO2 SLP151 T01500122 $

MVFR

15°C / 12.2°C

[Más]
Viento 220º 6kt
Visibilidad >10km
Tiempo -
Nubes Overcast 1600ft
Presión 1015
Cambiar -
Bruto KSAN 230551Z 22006KT 10SM OVC016 15/12 A2998 RMK AO2 SLP151 T01500122 10167 20150 51017 $

TAF a San Diego (KSAN)

From till


From till Wind 300º 12kt. Visibility 9700m. Scattered Clouds 2000ft. Broken Clouds 2700ft.
From till Wind 5kt. Visibility 9700m. Overcast 2500ft.
From till Wind 290º 12kt. Gust 18kt. Visibility 9700m. Overcast 2500ft.
Temporarly from till Scattered Clouds 2500ft.
From till Wind 300º 7kt. Visibility 9700m. Broken Clouds 2500ft.

Bruto: KSAN 232323Z 2400/2506 30012KT P6SM SCT020 BKN027 FM240430 VRB05KT P6SM OVC025 FM242000 29012G18KT P6SM OVC025 TEMPO 2421/2501 SCT025 FM250200 30007KT P6SM BKN025

rainNOW: Previsión de lluvia para San Diego y alrededores (25km de radio)

0.0 mm
0.0 mm
0.0 mm
0.0 mm
0.0 mm
0.0 mm
0.0 mm
0.0 mm
0.0 mm
0.0 mm
0.0 mm
0.0 mm

Radar y precipitación nowcast para San Diego

llovizna
Leve
Moderado
Fuerte
Muy fuerte
Granizo

El marcador del lugar se coloca en San Diego. Esta animación muestra el radar de precipitación para el intervalo de tiempo seleccionado, así como una previsión de 1h. Las cruces naranjas indican rayos. Datos proporcionados por nowcast.de (disponibles en EE.UU., Europa y Australia). La llovizna o una ligera nevada pueden ser invisibles para el radar. La intensidad de la precipitación está codificada por colores, del turquesa al rojo.

Imágenes actuales de satélite para San Diego, Estados Unidos

El marcador del lugar se coloca en San Diego. [Más]

La imagen de satélite en tiempo real se aprovecha de la combinación de bandas de la luz visible y de la luz infrarroja. Cómo se pueden detectar cambios de temperaturas a través de la banda infrarrojo, la imagen no aparece oscura de noche. No obstante, la niebla y las nubes bajas son apenas visibles en las imágenes de infrarrojo ya que las diferencias de temperaturas entre el suelo y la niebla son muy pequeñas, por eso, son casi invisibles durante la noche. Las imágenes de satélite del Meteosat (Europa) son actualizados en tiempo real cada 5 minutos. Las imágenes del GOES-16/GOES-17 (América del Norte y América del Sur) y Himawari (Asia) son actualizadas cada 10 minutos.

La precipitación se estima a partir del radar y de los satélites. Las estimaciones de la precipitación desde los satélites son menos precisas durante la noche que durante el día.

© 2024 meteoblue, NOAA Satellites GOES-16 and EUMETSAT. Datos de relámpagos proporcionados por nowcast.

Volver al principio
×
Hola,
parece que está usando un bloqueador de anuncios.

La publicidad es esencial para mantener nuestro sitio web gratuito con detalle y precisión únicos.

Por favor, incluya www.meteoblue.com en la lista blanca de su bloqueador de anuncios o considere comprar uno de nuestros productos:

¿Ya hay subscripción?
Entonces, por favor, iniciar sesión.